createdAt,value
2022-12-13T00:00:58.006Z,10.50
2022-12-13T00:03:24.429Z,11.53
2022-12-13T00:05:50.866Z,10.50
2022-12-13T00:08:17.374Z,11.03
2022-12-13T00:10:43.836Z,10.10
2022-12-13T00:13:10.203Z,11.00
2022-12-13T00:15:36.701Z,10.47
2022-12-13T00:18:03.155Z,11.90
2022-12-13T00:20:29.641Z,10.87
2022-12-13T00:22:56.161Z,10.37
2022-12-13T00:25:22.738Z,10.87
2022-12-13T00:27:49.168Z,10.23
2022-12-13T00:30:15.679Z,11.20
2022-12-13T00:32:42.147Z,12.60
2022-12-13T00:35:08.630Z,12.00
2022-12-13T00:37:35.340Z,10.90
2022-12-13T00:40:01.839Z,10.73
2022-12-13T00:42:29.274Z,12.43
2022-12-13T00:44:55.861Z,10.13
2022-12-13T00:47:24.227Z,11.17
2022-12-13T00:49:51.493Z,10.43
2022-12-13T00:52:18.042Z,11.33
2022-12-13T00:54:44.425Z,10.97
2022-12-13T00:57:10.959Z,11.33
2022-12-13T00:59:37.356Z,11.23
2022-12-13T01:02:03.952Z,10.90
2022-12-13T01:04:30.424Z,10.97
2022-12-13T01:06:56.931Z,9.37
2022-12-13T01:09:27.531Z,10.80
2022-12-13T01:12:11.953Z,9.80
2022-12-13T01:14:40.588Z,9.60
2022-12-13T01:17:07.731Z,10.13
2022-12-13T01:19:34.527Z,10.33
2022-12-13T01:22:04.241Z,9.83
2022-12-13T01:24:31.921Z,10.97
2022-12-13T01:26:58.496Z,9.63
2022-12-13T01:29:26.652Z,10.47
2022-12-13T01:31:53.843Z,10.90
2022-12-13T01:34:26.689Z,10.27
2022-12-13T01:36:54.475Z,9.77
2022-12-13T01:39:26.651Z,10.50
2022-12-13T01:42:00.016Z,9.43
2022-12-13T01:45:09.033Z,9.80
2022-12-13T01:47:46.421Z,9.03
2022-12-13T01:50:18.763Z,11.10
2022-12-13T01:52:46.505Z,10.53
2022-12-13T01:55:16.780Z,11.03
2022-12-13T01:57:45.972Z,10.30
2022-12-13T02:00:13.432Z,11.07
2022-12-13T02:02:40.180Z,10.40
2022-12-13T02:05:28.796Z,10.47
2022-12-13T02:07:58.175Z,10.17
2022-12-13T02:10:26.855Z,10.17
2022-12-13T02:12:53.389Z,10.40
2022-12-13T02:15:20.869Z,9.60
2022-12-13T02:17:54.394Z,10.50
2022-12-13T02:20:31.688Z,10.43
2022-12-13T02:23:41.084Z,9.60
2022-12-13T02:26:31.188Z,8.53
2022-12-13T02:29:31.767Z,9.63
2022-12-13T02:32:15.618Z,9.77
2022-12-13T02:34:53.828Z,10.03
2022-12-13T02:37:45.039Z,8.93
2022-12-13T02:40:26.601Z,9.80
2022-12-13T02:43:04.764Z,10.10
2022-12-13T02:45:58.889Z,10.00
2022-12-13T02:48:39.454Z,9.50
2022-12-13T02:51:09.418Z,9.80
2022-12-13T02:53:39.795Z,8.80
2022-12-13T02:56:06.334Z,9.03
2022-12-13T02:58:40.684Z,10.07
2022-12-13T03:01:28.783Z,9.63
2022-12-13T03:04:02.336Z,9.10
2022-12-13T03:06:46.835Z,9.70
2022-12-13T03:09:25.485Z,9.10
2022-12-13T03:12:40.622Z,9.53
2022-12-13T03:15:16.203Z,9.33
2022-12-13T03:17:51.989Z,10.27
2022-12-13T03:20:24.366Z,9.10
2022-12-13T03:22:52.420Z,9.43
2022-12-13T03:25:31.816Z,10.57
2022-12-13T03:28:01.330Z,9.20
2022-12-13T03:30:30.561Z,9.07
2022-12-13T03:32:57.007Z,9.40
2022-12-13T03:35:23.886Z,9.47
2022-12-13T03:37:50.946Z,9.43
2022-12-13T03:40:19.545Z,8.43
2022-12-13T03:42:47.202Z,9.03
2022-12-13T03:45:14.150Z,10.67
2022-12-13T03:47:40.811Z,8.87
2022-12-13T03:50:26.660Z,10.23
2022-12-13T03:53:01.606Z,10.37
2022-12-13T03:55:29.094Z,8.03
2022-12-13T03:57:56.008Z,10.10
2022-12-13T04:00:22.877Z,10.00
2022-12-13T04:02:49.561Z,9.33
2022-12-13T04:05:16.440Z,9.53
2022-12-13T04:07:49.260Z,9.50
2022-12-13T04:10:25.125Z,11.03
2022-12-13T04:13:12.505Z,11.73
2022-12-13T04:15:39.721Z,9.53
2022-12-13T04:18:06.515Z,8.97
2022-12-13T04:20:32.947Z,9.83
2022-12-13T04:22:59.437Z,8.70
2022-12-13T04:25:25.925Z,9.07
2022-12-13T04:27:52.411Z,8.60
2022-12-13T04:30:18.874Z,8.07
2022-12-13T04:32:45.404Z,8.40
2022-12-13T04:35:11.851Z,8.40
2022-12-13T04:37:38.251Z,8.00
2022-12-13T04:40:05.232Z,9.13
2022-12-13T04:42:31.720Z,8.73
2022-12-13T04:44:58.138Z,9.03
2022-12-13T04:47:24.536Z,8.50
2022-12-13T04:49:51.096Z,9.30
2022-12-13T04:52:22.183Z,9.27
2022-12-13T04:54:55.744Z,9.60
2022-12-13T04:57:23.255Z,9.10
2022-12-13T04:59:49.906Z,11.47
2022-12-13T05:02:24.022Z,9.37
2022-12-13T05:04:53.849Z,9.33
2022-12-13T05:07:21.680Z,9.83
2022-12-13T05:09:48.629Z,9.63
2022-12-13T05:12:22.240Z,10.03
2022-12-13T05:14:49.919Z,10.43
2022-12-13T05:17:16.786Z,11.10
2022-12-13T05:19:43.765Z,10.67
2022-12-13T05:22:19.729Z,11.17
2022-12-13T05:24:47.141Z,8.90
2022-12-13T05:27:24.444Z,10.47
2022-12-13T05:30:02.105Z,11.20
2022-12-13T05:32:33.885Z,9.63
2022-12-13T05:35:11.680Z,10.23
2022-12-13T05:37:38.172Z,10.03
2022-12-13T05:40:05.433Z,9.87
2022-12-13T05:42:32.067Z,11.00
2022-12-13T05:44:58.444Z,9.80
2022-12-13T05:47:24.926Z,9.50
2022-12-13T05:49:52.187Z,9.37
2022-12-13T05:52:20.432Z,9.90
2022-12-13T05:54:47.288Z,10.97
2022-12-13T05:57:14.314Z,8.83
2022-12-13T05:59:41.147Z,9.83
2022-12-13T06:02:07.641Z,9.77
2022-12-13T06:04:34.207Z,10.37
2022-12-13T06:07:00.671Z,9.93
2022-12-13T06:09:27.064Z,9.63
2022-12-13T06:12:00.920Z,10.80
2022-12-13T06:14:28.260Z,9.47
2022-12-13T06:16:54.843Z,9.77
2022-12-13T06:19:22.536Z,9.40
2022-12-13T06:21:51.023Z,9.30
2022-12-13T06:24:19.720Z,10.73
2022-12-13T06:26:47.894Z,9.77
2022-12-13T06:29:22.545Z,9.20
2022-12-13T06:32:01.865Z,10.43
2022-12-13T06:34:34.763Z,9.43
2022-12-13T06:37:05.584Z,10.07
2022-12-13T06:39:34.118Z,9.87
2022-12-13T06:42:06.396Z,11.13
2022-12-13T06:44:33.579Z,9.90
2022-12-13T06:47:11.532Z,10.20
2022-12-13T06:49:39.940Z,10.47
2022-12-13T06:52:10.007Z,10.77
2022-12-13T06:54:36.533Z,9.80
2022-12-13T06:57:02.988Z,10.03
2022-12-13T06:59:29.353Z,10.63
2022-12-13T07:01:55.842Z,11.03
2022-12-13T07:04:31.492Z,10.50
2022-12-13T07:07:01.621Z,9.70
2022-12-13T07:09:30.274Z,10.37
2022-12-13T07:11:56.809Z,12.03
2022-12-13T07:14:23.210Z,10.37
2022-12-13T07:16:49.606Z,10.13
2022-12-13T07:19:22.658Z,10.57
2022-12-13T07:21:50.758Z,11.10
2022-12-13T07:24:17.214Z,10.37
2022-12-13T07:26:43.683Z,9.50
2022-12-13T07:29:10.107Z,10.83
2022-12-13T07:31:37.572Z,11.20
2022-12-13T07:34:04.418Z,12.33
2022-12-13T07:36:30.937Z,12.87
2022-12-13T07:38:58.472Z,13.20
2022-12-13T07:41:26.241Z,12.40
2022-12-13T07:43:55.441Z,12.10
2022-12-13T07:46:32.123Z,12.60
2022-12-13T07:49:05.053Z,11.40
2022-12-13T07:51:34.290Z,10.60
2022-12-13T07:54:00.805Z,10.60
2022-12-13T07:56:33.705Z,12.40
2022-12-13T07:59:00.078Z,10.80
2022-12-13T08:01:26.569Z,11.50
2022-12-13T08:03:52.985Z,11.93
2022-12-13T08:06:19.981Z,13.47
2022-12-13T08:08:46.767Z,13.03
2022-12-13T08:11:16.618Z,12.20
2022-12-13T08:13:43.487Z,13.30
2022-12-13T08:16:26.685Z,12.00
2022-12-13T08:19:02.593Z,12.50
2022-12-13T08:21:55.054Z,14.63
2022-12-13T08:24:31.628Z,12.93
2022-12-13T08:27:03.631Z,14.73
2022-12-13T08:29:34.980Z,14.43
2022-12-13T08:32:08.525Z,13.47
2022-12-13T08:34:35.483Z,14.07
2022-12-13T08:37:03.932Z,12.77
2022-12-13T08:39:38.181Z,11.53
2022-12-13T08:42:16.229Z,13.53
2022-12-13T08:44:50.102Z,11.37
2022-12-13T08:47:22.896Z,11.73
2022-12-13T08:49:52.005Z,12.63
2022-12-13T08:52:19.583Z,12.63
2022-12-13T08:54:46.072Z,13.07
2022-12-13T08:57:14.035Z,13.00
2022-12-13T08:59:40.513Z,13.20
2022-12-13T09:02:07.084Z,12.97
2022-12-13T09:04:33.571Z,13.07
2022-12-13T09:07:01.677Z,13.37
2022-12-13T09:09:29.351Z,13.83
2022-12-13T09:11:59.688Z,12.30
2022-12-13T09:14:33.834Z,12.13
2022-12-13T09:17:03.056Z,13.07
2022-12-13T09:19:36.952Z,13.63
2022-12-13T09:22:04.893Z,14.30
2022-12-13T09:24:36.454Z,13.60
2022-12-13T09:27:09.128Z,13.90
2022-12-13T09:29:38.225Z,15.00
2022-12-13T09:32:05.131Z,13.33
2022-12-13T09:34:33.123Z,13.67
2022-12-13T09:37:01.420Z,14.80
2022-12-13T09:39:28.731Z,12.87
2022-12-13T09:42:01.087Z,14.83
2022-12-13T09:44:43.742Z,13.00
2022-12-13T09:47:23.178Z,14.43
2022-12-13T09:49:52.140Z,13.33
2022-12-13T09:52:22.734Z,13.77
2022-12-13T09:54:54.329Z,15.30
2022-12-13T09:57:32.021Z,13.40
2022-12-13T10:00:02.435Z,14.73
2022-12-13T10:02:32.323Z,14.40
2022-12-13T10:05:22.281Z,15.07
2022-12-13T10:07:50.403Z,13.17
2022-12-13T10:10:16.805Z,14.50
2022-12-13T10:12:45.532Z,15.20
2022-12-13T10:15:21.683Z,14.40
2022-12-13T10:17:55.270Z,14.00
2022-12-13T10:20:28.925Z,14.20
2022-12-13T10:23:31.483Z,15.03
2022-12-13T10:25:51.597Z,15.87
2022-12-13T10:28:24.247Z,15.30
2022-12-13T10:30:50.862Z,15.77
2022-12-13T10:33:38.497Z,15.27
2022-12-13T10:36:14.652Z,15.87
2022-12-13T10:38:44.129Z,14.47
2022-12-13T10:41:30.523Z,16.73
2022-12-13T10:44:11.986Z,14.60
2022-12-13T10:47:04.625Z,16.50
2022-12-13T10:49:39.224Z,15.93
2022-12-13T10:52:07.297Z,15.50
2022-12-13T10:54:38.312Z,13.80
2022-12-13T10:57:11.219Z,17.43
2022-12-13T10:59:39.566Z,16.90
2022-12-13T11:02:32.849Z,16.57
2022-12-13T11:05:01.065Z,16.73
2022-12-13T11:07:29.286Z,15.57
2022-12-13T11:10:15.135Z,17.83
2022-12-13T11:12:42.207Z,18.70
2022-12-13T11:15:18.994Z,15.10
2022-12-13T11:17:56.918Z,19.83
2022-12-13T11:20:30.964Z,19.27
2022-12-13T11:23:28.590Z,18.37
2022-12-13T11:25:59.372Z,14.47
2022-12-13T11:29:03.568Z,19.63
2022-12-13T11:31:42.264Z,18.13
2022-12-13T11:34:08.602Z,18.50
2022-12-13T11:37:06.154Z,17.10
2022-12-13T11:39:32.589Z,17.90
2022-12-13T11:42:19.344Z,16.13
2022-12-13T11:45:00.157Z,18.03
2022-12-13T11:47:34.634Z,16.70
2022-12-13T11:50:05.164Z,15.03
2022-12-13T11:52:46.829Z,15.17
2022-12-13T11:55:20.052Z,16.40
2022-12-13T11:57:59.429Z,14.63
2022-12-13T12:00:45.622Z,15.60
2022-12-13T12:03:45.913Z,14.87
2022-12-13T12:06:18.085Z,15.77
2022-12-13T12:08:56.237Z,17.00
2022-12-13T12:11:34.365Z,15.30
2022-12-13T12:14:19.677Z,15.63
2022-12-13T12:16:52.973Z,15.70
2022-12-13T12:19:31.621Z,14.77
2022-12-13T12:22:17.035Z,14.87
2022-12-13T12:25:00.338Z,16.30
2022-12-13T12:27:29.535Z,15.67
2022-12-13T12:30:14.072Z,16.40
2022-12-13T12:33:07.707Z,14.40
2022-12-13T12:35:50.774Z,15.03
2022-12-13T12:38:46.347Z,14.70
2022-12-13T12:41:25.067Z,14.47
2022-12-13T12:44:03.947Z,16.03
2022-12-13T12:47:18.024Z,15.63
2022-12-13T12:50:23.887Z,15.40
2022-12-13T12:53:03.048Z,15.40
2022-12-13T12:55:50.035Z,15.83
2022-12-13T12:58:28.821Z,14.77
2022-12-13T13:01:22.112Z,15.67
2022-12-13T13:03:51.716Z,16.43
2022-12-13T13:06:34.778Z,17.03
2022-12-13T13:09:07.850Z,16.30
2022-12-13T13:11:42.809Z,16.80
2022-12-13T13:14:36.564Z,15.43
2022-12-13T13:17:26.339Z,15.00
2022-12-13T13:20:07.886Z,15.40
2022-12-13T13:22:44.121Z,15.30
2022-12-13T13:25:31.401Z,15.17
2022-12-13T13:28:05.418Z,15.03
2022-12-13T13:30:32.710Z,18.10
2022-12-13T13:33:00.327Z,17.80
2022-12-13T13:35:32.881Z,16.30
2022-12-13T13:38:04.497Z,14.97
2022-12-13T13:40:36.784Z,15.60
2022-12-13T13:43:06.308Z,16.20
2022-12-13T13:45:58.104Z,16.10
2022-12-13T13:48:37.919Z,14.00
2022-12-13T13:51:32.442Z,15.17
2022-12-13T13:54:37.148Z,15.13
2022-12-13T13:57:22.322Z,13.97
2022-12-13T14:00:12.065Z,14.63
2022-12-13T14:03:22.208Z,17.10
2022-12-13T14:06:12.641Z,14.63
2022-12-13T14:09:00.889Z,15.83
2022-12-13T14:12:03.781Z,15.37
2022-12-13T14:14:55.247Z,17.40
2022-12-13T14:17:46.947Z,15.13
2022-12-13T14:20:40.161Z,14.53
2022-12-13T14:23:22.281Z,14.80
2022-12-13T14:26:25.965Z,13.73
2022-12-13T14:29:03.976Z,14.80
2022-12-13T14:31:39.594Z,13.93
2022-12-13T14:34:07.924Z,13.40
2022-12-13T14:36:36.492Z,13.87
2022-12-13T14:39:07.093Z,17.70
2022-12-13T14:41:56.563Z,14.80
2022-12-13T14:44:29.549Z,13.30
2022-12-13T14:46:59.715Z,15.73
2022-12-13T14:49:29.241Z,15.03
2022-12-13T14:52:03.535Z,13.53
2022-12-13T14:54:44.392Z,15.03
2022-12-13T14:57:18.325Z,13.93
2022-12-13T14:59:50.131Z,13.90
2022-12-13T15:02:30.932Z,13.33
2022-12-13T15:05:04.479Z,14.90
2022-12-13T15:07:39.245Z,14.57
2022-12-13T15:10:14.709Z,13.70
2022-12-13T15:12:43.452Z,13.00
2022-12-13T15:15:29.045Z,14.70
2022-12-13T15:18:18.251Z,14.80
2022-12-13T15:20:46.904Z,14.07
2022-12-13T15:23:27.130Z,14.83
2022-12-13T15:26:01.924Z,15.03
2022-12-13T15:28:34.029Z,14.13
2022-12-13T15:31:01.506Z,14.70
2022-12-13T15:33:34.402Z,13.57
2022-12-13T15:36:06.611Z,12.67
2022-12-13T15:38:34.392Z,13.40
2022-12-13T15:41:02.875Z,14.13
2022-12-13T15:43:42.589Z,12.97
2022-12-13T15:46:10.144Z,12.77
2022-12-13T15:48:40.381Z,13.37
2022-12-13T15:51:28.727Z,14.80
2022-12-13T15:54:08.924Z,14.03
2022-12-13T15:56:43.822Z,14.30
2022-12-13T15:59:34.786Z,12.97
2022-12-13T16:02:03.487Z,15.23
2022-12-13T16:04:33.303Z,12.80
2022-12-13T16:07:00.899Z,15.43
2022-12-13T16:09:31.639Z,17.20
2022-12-13T16:12:04.764Z,15.97
2022-12-13T16:14:31.287Z,15.37
2022-12-13T16:17:08.421Z,16.43
2022-12-13T16:19:35.487Z,15.33
2022-12-13T16:22:02.181Z,15.33
2022-12-13T16:24:36.524Z,14.90
2022-12-13T16:27:08.666Z,18.27
2022-12-13T16:29:36.551Z,15.40
2022-12-13T16:32:08.760Z,16.10
2022-12-13T16:34:36.075Z,17.07
2022-12-13T16:37:02.714Z,14.47
2022-12-13T16:39:35.150Z,14.93
2022-12-13T16:42:01.530Z,17.10
2022-12-13T16:44:35.218Z,14.07
2022-12-13T16:47:13.208Z,15.40
2022-12-13T16:49:46.364Z,17.33
2022-12-13T16:52:12.776Z,15.13
2022-12-13T16:54:39.245Z,15.80
2022-12-13T16:57:05.631Z,16.07
2022-12-13T16:59:32.649Z,16.23
2022-12-13T17:01:59.074Z,14.47
2022-12-13T17:04:27.265Z,15.80
2022-12-13T17:06:55.129Z,15.83
2022-12-13T17:09:22.837Z,16.00
2022-12-13T17:11:49.283Z,16.57
2022-12-13T17:14:15.692Z,14.60
2022-12-13T17:16:42.217Z,14.93
2022-12-13T17:19:10.535Z,16.97
2022-12-13T17:21:37.101Z,15.47
2022-12-13T17:24:04.817Z,17.27
2022-12-13T17:26:31.239Z,16.57
2022-12-13T17:28:57.735Z,16.43
2022-12-13T17:31:25.746Z,16.47
2022-12-13T17:33:57.147Z,16.77
2022-12-13T17:36:23.555Z,17.20
2022-12-13T17:38:49.945Z,17.37
2022-12-13T17:41:16.475Z,15.70
2022-12-13T17:43:43.836Z,16.53
2022-12-13T17:46:14.229Z,15.57
2022-12-13T17:48:41.984Z,16.03
2022-12-13T17:51:10.294Z,14.77
2022-12-13T17:53:38.710Z,17.50
2022-12-13T17:56:07.719Z,14.83
2022-12-13T17:58:35.389Z,16.27
2022-12-13T18:01:18.267Z,14.63
2022-12-13T18:03:45.127Z,16.60
2022-12-13T18:06:12.053Z,15.53
2022-12-13T18:08:39.516Z,14.83
2022-12-13T18:13:54.989Z,16.33
2022-12-13T18:16:23.251Z,14.57
2022-12-13T18:18:55.249Z,15.43
2022-12-13T18:21:22.334Z,14.97
2022-12-13T18:23:55.595Z,15.00
2022-12-13T18:26:24.089Z,16.10
2022-12-13T18:28:50.785Z,15.10
2022-12-13T18:31:20.194Z,14.67
2022-12-13T18:33:48.101Z,14.03
2022-12-13T18:36:16.253Z,12.97
2022-12-13T18:38:43.315Z,15.23
2022-12-13T18:41:13.877Z,15.97
2022-12-13T18:43:41.005Z,16.93
2022-12-13T18:46:08.379Z,16.27
2022-12-13T18:48:35.007Z,13.30
2022-12-13T18:51:03.051Z,14.03
2022-12-13T18:53:32.234Z,13.80
2022-12-13T18:56:04.782Z,14.33
2022-12-13T18:58:35.878Z,14.80
2022-12-13T19:01:11.655Z,16.97
2022-12-13T19:03:39.028Z,14.93
2022-12-13T19:06:06.927Z,16.77
2022-12-13T19:08:34.072Z,16.00
2022-12-13T19:11:02.202Z,15.70
2022-12-13T19:13:29.804Z,15.47
2022-12-13T19:15:58.316Z,15.30
2022-12-13T19:18:25.065Z,13.17
2022-12-13T19:20:53.720Z,17.37
2022-12-13T19:23:20.477Z,14.67
2022-12-13T19:25:48.816Z,15.07
2022-12-13T19:28:17.441Z,16.20
2022-12-13T19:30:45.934Z,15.23
2022-12-13T19:33:14.386Z,13.87
2022-12-13T19:35:43.142Z,15.33
2022-12-13T19:38:10.239Z,13.60
2022-12-13T19:40:40.679Z,14.73
2022-12-13T19:43:07.240Z,14.30
2022-12-13T19:45:34.121Z,15.37
2022-12-13T19:48:00.546Z,14.77
2022-12-13T19:50:28.613Z,14.17
2022-12-13T19:52:55.061Z,15.27
2022-12-13T19:55:21.545Z,12.47
2022-12-13T19:57:48.018Z,15.50
2022-12-13T20:00:16.156Z,14.53
2022-12-13T20:02:42.798Z,15.27
2022-12-13T20:05:09.540Z,14.57
2022-12-13T20:07:36.170Z,14.37
2022-12-13T20:10:04.293Z,14.13
2022-12-13T20:12:37.066Z,15.30
2022-12-13T20:15:07.954Z,15.30
2022-12-13T20:17:36.035Z,13.10
2022-12-13T20:20:03.842Z,13.93
2022-12-13T20:22:30.969Z,13.27
2022-12-13T20:24:57.452Z,14.50
2022-12-13T20:27:24.541Z,14.10
2022-12-13T20:29:51.106Z,14.53
2022-12-13T20:32:20.850Z,13.63
2022-12-13T20:34:53.093Z,15.23
2022-12-13T20:37:21.275Z,14.17
2022-12-13T20:39:47.876Z,12.33
2022-12-13T20:42:14.366Z,14.03
2022-12-13T20:44:40.778Z,13.47
2022-12-13T20:47:07.244Z,14.63
2022-12-13T20:49:33.713Z,13.50
2022-12-13T20:52:00.184Z,13.73
2022-12-13T20:54:26.578Z,14.07
2022-12-13T20:56:53.132Z,12.80
2022-12-13T20:59:19.621Z,12.93
2022-12-13T21:01:49.054Z,13.23
2022-12-13T21:04:15.969Z,14.30
2022-12-13T21:06:42.740Z,12.37
2022-12-13T21:09:10.939Z,14.77
2022-12-13T21:11:40.489Z,13.70
2022-12-13T21:14:16.934Z,12.07
2022-12-13T21:16:47.347Z,12.87
2022-12-13T21:19:17.012Z,13.17
2022-12-13T21:21:43.699Z,12.37
2022-12-13T21:24:14.664Z,13.37
2022-12-13T21:26:41.270Z,12.50
2022-12-13T21:29:10.962Z,13.17
2022-12-13T21:31:40.080Z,12.73
2022-12-13T21:34:07.181Z,11.63
2022-12-13T21:36:36.807Z,13.00
2022-12-13T21:39:06.594Z,13.40
2022-12-13T21:41:33.176Z,12.23
2022-12-13T21:44:00.575Z,13.60
2022-12-13T21:46:47.812Z,12.30
2022-12-13T21:49:15.392Z,13.07
2022-12-13T21:51:47.432Z,12.03
2022-12-13T21:54:14.552Z,14.30
2022-12-13T21:56:59.654Z,13.57
2022-12-13T21:59:27.782Z,12.97
2022-12-13T22:02:12.241Z,12.60
2022-12-13T22:04:47.316Z,13.83
2022-12-13T22:07:20.982Z,12.00
2022-12-13T22:09:48.371Z,13.23
2022-12-13T22:12:35.549Z,13.90
2022-12-13T22:15:02.920Z,11.83
2022-12-13T22:17:35.128Z,12.87
2022-12-13T22:20:06.636Z,12.90
2022-12-13T22:22:33.314Z,12.53
2022-12-13T22:25:00.048Z,12.53
2022-12-13T22:27:26.825Z,11.83
2022-12-13T22:29:56.695Z,10.60
2022-12-13T22:32:28.507Z,11.97
2022-12-13T22:34:55.408Z,12.40
2022-12-13T22:37:22.308Z,11.87
2022-12-13T22:39:49.962Z,12.33
2022-12-13T22:42:16.545Z,11.30
2022-12-13T22:44:43.088Z,12.40
2022-12-13T22:47:09.544Z,11.53
2022-12-13T22:49:35.973Z,11.07
2022-12-13T22:52:02.617Z,11.17
2022-12-13T22:54:29.015Z,12.37
2022-12-13T22:56:55.526Z,10.27
2022-12-13T22:59:22.013Z,11.57
2022-12-13T23:01:48.587Z,11.20
2022-12-13T23:04:15.468Z,11.60
2022-12-13T23:06:42.081Z,11.07
2022-12-13T23:09:12.178Z,11.73
2022-12-13T23:11:57.491Z,10.73
2022-12-13T23:14:33.379Z,11.33
2022-12-13T23:17:01.406Z,10.30
2022-12-13T23:19:49.014Z,10.97
2022-12-13T23:22:15.482Z,9.77
2022-12-13T23:24:41.870Z,9.00
2022-12-13T23:27:10.387Z,9.13
2022-12-13T23:29:36.865Z,9.63
2022-12-13T23:32:03.388Z,9.10
2022-12-13T23:34:29.728Z,8.97
2022-12-13T23:36:56.095Z,10.43
2022-12-13T23:39:22.460Z,11.10
2022-12-13T23:41:48.891Z,9.83
2022-12-13T23:44:15.755Z,10.00
2022-12-13T23:46:42.203Z,10.27
2022-12-13T23:49:15.719Z,10.23
2022-12-13T23:51:42.261Z,10.90
2022-12-13T23:54:09.805Z,9.13
2022-12-13T23:56:36.208Z,10.77
2022-12-13T23:59:02.634Z,10.30
